sensor_id;sensor_type;location;lat;lon;timestamp;P1;durP1;ratioP1;P2;durP2;ratioP2
30723;SDS011;17473;52.286;20.930;2023-08-31T00:00:54;8.75;;;6.38;;
30723;SDS011;17473;52.286;20.930;2023-08-31T00:03:21;9.13;;;6.93;;
30723;SDS011;17473;52.286;20.930;2023-08-31T00:05:49;9.05;;;6.38;;
30723;SDS011;17473;52.286;20.930;2023-08-31T00:08:18;7.57;;;5.65;;
30723;SDS011;17473;52.286;20.930;2023-08-31T00:10:45;8.45;;;6.00;;
30723;SDS011;17473;52.286;20.930;2023-08-31T00:13:12;6.97;;;5.75;;
30723;SDS011;17473;52.286;20.930;2023-08-31T00:15:39;8.18;;;5.80;;
30723;SDS011;17473;52.286;20.930;2023-08-31T00:18:07;8.05;;;5.65;;
30723;SDS011;17473;52.286;20.930;2023-08-31T00:20:36;7.25;;;4.80;;
30723;SDS011;17473;52.286;20.930;2023-08-31T00:23:03;9.18;;;5.40;;
30723;SDS011;17473;52.286;20.930;2023-08-31T00:25:30;10.80;;;5.07;;
30723;SDS011;17473;52.286;20.930;2023-08-31T00:27:58;6.15;;;5.13;;
30723;SDS011;17473;52.286;20.930;2023-08-31T00:30:31;6.15;;;5.35;;
30723;SDS011;17473;52.286;20.930;2023-08-31T00:32:59;5.43;;;4.82;;
30723;SDS011;17473;52.286;20.930;2023-08-31T00:35:27;5.10;;;4.50;;
30723;SDS011;17473;52.286;20.930;2023-08-31T00:37:54;6.38;;;5.30;;
30723;SDS011;17473;52.286;20.930;2023-08-31T00:40:25;5.68;;;4.47;;
30723;SDS011;17473;52.286;20.930;2023-08-31T00:42:52;8.57;;;5.10;;
30723;SDS011;17473;52.286;20.930;2023-08-31T00:45:19;8.52;;;4.90;;
30723;SDS011;17473;52.286;20.930;2023-08-31T00:47:48;5.68;;;4.90;;
30723;SDS011;17473;52.286;20.930;2023-08-31T00:50:16;6.97;;;4.53;;
30723;SDS011;17473;52.286;20.930;2023-08-31T00:52:43;7.43;;;5.50;;
30723;SDS011;17473;52.286;20.930;2023-08-31T00:55:10;5.70;;;4.57;;
30723;SDS011;17473;52.286;20.930;2023-08-31T00:57:38;7.15;;;4.78;;
30723;SDS011;17473;52.286;20.930;2023-08-31T01:00:08;7.00;;;4.53;;
30723;SDS011;17473;52.286;20.930;2023-08-31T01:02:39;5.30;;;4.55;;
30723;SDS011;17473;52.286;20.930;2023-08-31T01:11:12;6.28;;;4.68;;
30723;SDS011;17473;52.286;20.930;2023-08-31T01:14:15;5.13;;;4.13;;
30723;SDS011;17473;52.286;20.930;2023-08-31T01:16:47;5.13;;;4.30;;
30723;SDS011;17473;52.286;20.930;2023-08-31T01:25:07;7.15;;;4.82;;
30723;SDS011;17473;52.286;20.930;2023-08-31T01:27:36;5.95;;;4.43;;
30723;SDS011;17473;52.286;20.930;2023-08-31T01:30:05;6.22;;;4.90;;
30723;SDS011;17473;52.286;20.930;2023-08-31T01:32:33;4.72;;;4.18;;
30723;SDS011;17473;52.286;20.930;2023-08-31T01:35:01;4.82;;;4.32;;
30723;SDS011;17473;52.286;20.930;2023-08-31T01:40:22;5.72;;;4.93;;
30723;SDS011;17473;52.286;20.930;2023-08-31T01:43:11;6.90;;;4.95;;
30723;SDS011;17473;52.286;20.930;2023-08-31T01:45:40;5.28;;;4.78;;
30723;SDS011;17473;52.286;20.930;2023-08-31T01:48:08;5.93;;;4.68;;
30723;SDS011;17473;52.286;20.930;2023-08-31T01:50:36;6.03;;;4.90;;
30723;SDS011;17473;52.286;20.930;2023-08-31T01:53:03;5.00;;;4.50;;
30723;SDS011;17473;52.286;20.930;2023-08-31T01:55:33;7.00;;;4.50;;
30723;SDS011;17473;52.286;20.930;2023-08-31T01:58:00;7.85;;;4.70;;
30723;SDS011;17473;52.286;20.930;2023-08-31T02:00:28;7.70;;;4.95;;
30723;SDS011;17473;52.286;20.930;2023-08-31T02:02:55;5.25;;;4.53;;
30723;SDS011;17473;52.286;20.930;2023-08-31T02:05:22;5.80;;;4.70;;
30723;SDS011;17473;52.286;20.930;2023-08-31T02:07:49;5.18;;;4.60;;
30723;SDS011;17473;52.286;20.930;2023-08-31T02:10:16;5.47;;;4.78;;
30723;SDS011;17473;52.286;20.930;2023-08-31T02:12:43;7.20;;;4.35;;
30723;SDS011;17473;52.286;20.930;2023-08-31T02:15:11;4.45;;;4.05;;
30723;SDS011;17473;52.286;20.930;2023-08-31T02:17:38;6.55;;;4.35;;
30723;SDS011;17473;52.286;20.930;2023-08-31T02:20:05;5.00;;;4.50;;
30723;SDS011;17473;52.286;20.930;2023-08-31T02:22:34;7.18;;;3.95;;
30723;SDS011;17473;52.286;20.930;2023-08-31T02:25:01;4.43;;;4.03;;
30723;SDS011;17473;52.286;20.930;2023-08-31T02:27:29;5.65;;;4.85;;
30723;SDS011;17473;52.286;20.930;2023-08-31T02:29:56;6.95;;;4.53;;
30723;SDS011;17473;52.286;20.930;2023-08-31T02:32:23;5.40;;;4.40;;
30723;SDS011;17473;52.286;20.930;2023-08-31T02:34:51;5.00;;;4.38;;
30723;SDS011;17473;52.286;20.930;2023-08-31T02:37:18;4.47;;;4.07;;
30723;SDS011;17473;52.286;20.930;2023-08-31T02:39:45;5.57;;;4.32;;
30723;SDS011;17473;52.286;20.930;2023-08-31T02:42:13;4.82;;;4.43;;
30723;SDS011;17473;52.286;20.930;2023-08-31T02:44:41;9.20;;;4.78;;
30723;SDS011;17473;52.286;20.930;2023-08-31T02:47:08;5.13;;;4.55;;
30723;SDS011;17473;52.286;20.930;2023-08-31T02:49:35;6.18;;;4.57;;
30723;SDS011;17473;52.286;20.930;2023-08-31T02:52:02;5.82;;;4.38;;
30723;SDS011;17473;52.286;20.930;2023-08-31T02:54:30;6.78;;;4.65;;
30723;SDS011;17473;52.286;20.930;2023-08-31T02:56:57;7.88;;;4.55;;
30723;SDS011;17473;52.286;20.930;2023-08-31T02:59:24;4.97;;;4.43;;
30723;SDS011;17473;52.286;20.930;2023-08-31T03:01:51;5.85;;;4.50;;
30723;SDS011;17473;52.286;20.930;2023-08-31T03:04:18;6.22;;;4.47;;
30723;SDS011;17473;52.286;20.930;2023-08-31T03:06:46;5.55;;;5.00;;
30723;SDS011;17473;52.286;20.930;2023-08-31T03:09:13;5.90;;;4.28;;
30723;SDS011;17473;52.286;20.930;2023-08-31T03:11:40;8.77;;;4.70;;
30723;SDS011;17473;52.286;20.930;2023-08-31T03:14:07;4.88;;;4.13;;
30723;SDS011;17473;52.286;20.930;2023-08-31T03:16:36;5.65;;;4.00;;
30723;SDS011;17473;52.286;20.930;2023-08-31T03:19:03;7.43;;;3.80;;
30723;SDS011;17473;52.286;20.930;2023-08-31T03:21:31;4.22;;;3.70;;
30723;SDS011;17473;52.286;20.930;2023-08-31T03:23:59;4.30;;;3.53;;
30723;SDS011;17473;52.286;20.930;2023-08-31T03:26:26;4.63;;;4.05;;
30723;SDS011;17473;52.286;20.930;2023-08-31T03:28:53;6.82;;;3.67;;
30723;SDS011;17473;52.286;20.930;2023-08-31T03:31:20;8.70;;;3.92;;
30723;SDS011;17473;52.286;20.930;2023-08-31T03:33:48;4.00;;;3.60;;
30723;SDS011;17473;52.286;20.930;2023-08-31T03:36:16;4.72;;;3.10;;
30723;SDS011;17473;52.286;20.930;2023-08-31T03:38:45;4.68;;;3.45;;
30723;SDS011;17473;52.286;20.930;2023-08-31T03:41:12;5.00;;;3.58;;
30723;SDS011;17473;52.286;20.930;2023-08-31T03:43:39;5.03;;;3.38;;
30723;SDS011;17473;52.286;20.930;2023-08-31T03:46:06;4.20;;;3.38;;
30723;SDS011;17473;52.286;20.930;2023-08-31T03:48:34;5.18;;;3.58;;
30723;SDS011;17473;52.286;20.930;2023-08-31T03:51:01;4.30;;;3.10;;
30723;SDS011;17473;52.286;20.930;2023-08-31T03:53:28;3.13;;;2.83;;
30723;SDS011;17473;52.286;20.930;2023-08-31T03:55:55;4.10;;;3.13;;
30723;SDS011;17473;52.286;20.930;2023-08-31T03:58:22;5.75;;;3.05;;
30723;SDS011;17473;52.286;20.930;2023-08-31T04:00:50;3.78;;;2.88;;
30723;SDS011;17473;52.286;20.930;2023-08-31T04:03:17;3.15;;;2.75;;
30723;SDS011;17473;52.286;20.930;2023-08-31T04:05:44;6.32;;;2.60;;
30723;SDS011;17473;52.286;20.930;2023-08-31T04:08:11;3.03;;;2.45;;
30723;SDS011;17473;52.286;20.930;2023-08-31T04:10:39;5.65;;;2.63;;
30723;SDS011;17473;52.286;20.930;2023-08-31T04:13:06;2.20;;;2.00;;
30723;SDS011;17473;52.286;20.930;2023-08-31T04:15:33;2.95;;;2.05;;
30723;SDS011;17473;52.286;20.930;2023-08-31T04:18:01;4.45;;;2.40;;
30723;SDS011;17473;52.286;20.930;2023-08-31T04:20:29;2.65;;;2.30;;
30723;SDS011;17473;52.286;20.930;2023-08-31T04:22:56;2.38;;;2.15;;
30723;SDS011;17473;52.286;20.930;2023-08-31T04:25:24;3.00;;;1.80;;
30723;SDS011;17473;52.286;20.930;2023-08-31T04:27:54;3.35;;;2.13;;
30723;SDS011;17473;52.286;20.930;2023-08-31T04:30:23;2.35;;;1.88;;
30723;SDS011;17473;52.286;20.930;2023-08-31T04:32:50;5.32;;;2.25;;
30723;SDS011;17473;52.286;20.930;2023-08-31T04:35:17;2.63;;;1.83;;
30723;SDS011;17473;52.286;20.930;2023-08-31T04:37:44;2.95;;;1.75;;
30723;SDS011;17473;52.286;20.930;2023-08-31T04:40:13;2.55;;;1.90;;
30723;SDS011;17473;52.286;20.930;2023-08-31T04:42:40;3.75;;;1.80;;
30723;SDS011;17473;52.286;20.930;2023-08-31T04:45:07;5.82;;;2.30;;
30723;SDS011;17473;52.286;20.930;2023-08-31T04:47:36;2.30;;;1.85;;
30723;SDS011;17473;52.286;20.930;2023-08-31T04:50:04;4.85;;;1.80;;
30723;SDS011;17473;52.286;20.930;2023-08-31T04:52:32;4.15;;;2.00;;
30723;SDS011;17473;52.286;20.930;2023-08-31T04:55:00;4.22;;;2.05;;
30723;SDS011;17473;52.286;20.930;2023-08-31T04:57:30;1.80;;;1.50;;
30723;SDS011;17473;52.286;20.930;2023-08-31T04:59:57;3.17;;;1.85;;
30723;SDS011;17473;52.286;20.930;2023-08-31T05:02:24;5.68;;;1.83;;
30723;SDS011;17473;52.286;20.930;2023-08-31T05:04:51;1.38;;;1.27;;
30723;SDS011;17473;52.286;20.930;2023-08-31T05:07:18;2.03;;;1.55;;
30723;SDS011;17473;52.286;20.930;2023-08-31T05:09:46;1.67;;;1.58;;
30723;SDS011;17473;52.286;20.930;2023-08-31T05:12:13;2.38;;;1.60;;
30723;SDS011;17473;52.286;20.930;2023-08-31T05:14:40;3.90;;;1.35;;
30723;SDS011;17473;52.286;20.930;2023-08-31T05:17:07;1.92;;;1.58;;
30723;SDS011;17473;52.286;20.930;2023-08-31T05:19:35;1.58;;;1.48;;
30723;SDS011;17473;52.286;20.930;2023-08-31T05:22:02;2.30;;;1.27;;
30723;SDS011;17473;52.286;20.930;2023-08-31T05:24:30;2.78;;;1.70;;
30723;SDS011;17473;52.286;20.930;2023-08-31T05:26:57;1.88;;;1.20;;
30723;SDS011;17473;52.286;20.930;2023-08-31T05:29:24;3.22;;;1.30;;
30723;SDS011;17473;52.286;20.930;2023-08-31T05:31:51;3.58;;;1.55;;
30723;SDS011;17473;52.286;20.930;2023-08-31T05:34:24;3.65;;;1.33;;
30723;SDS011;17473;52.286;20.930;2023-08-31T05:36:51;3.65;;;1.48;;
30723;SDS011;17473;52.286;20.930;2023-08-31T05:39:19;2.50;;;1.35;;
30723;SDS011;17473;52.286;20.930;2023-08-31T05:41:46;4.93;;;1.58;;
30723;SDS011;17473;52.286;20.930;2023-08-31T05:44:13;4.13;;;1.58;;
30723;SDS011;17473;52.286;20.930;2023-08-31T05:46:40;1.70;;;1.48;;
30723;SDS011;17473;52.286;20.930;2023-08-31T05:49:08;3.88;;;1.58;;
30723;SDS011;17473;52.286;20.930;2023-08-31T05:51:35;2.35;;;1.55;;
30723;SDS011;17473;52.286;20.930;2023-08-31T05:54:02;4.93;;;1.60;;
30723;SDS011;17473;52.286;20.930;2023-08-31T05:56:30;2.33;;;1.17;;
30723;SDS011;17473;52.286;20.930;2023-08-31T05:58:57;1.45;;;1.10;;
30723;SDS011;17473;52.286;20.930;2023-08-31T06:01:24;3.60;;;1.90;;
30723;SDS011;17473;52.286;20.930;2023-08-31T06:03:51;2.17;;;1.30;;
30723;SDS011;17473;52.286;20.930;2023-08-31T06:06:19;3.00;;;1.38;;
30723;SDS011;17473;52.286;20.930;2023-08-31T06:08:46;1.75;;;1.42;;
30723;SDS011;17473;52.286;20.930;2023-08-31T06:11:14;2.30;;;1.40;;
30723;SDS011;17473;52.286;20.930;2023-08-31T06:13:41;2.88;;;1.67;;
30723;SDS011;17473;52.286;20.930;2023-08-31T06:16:09;3.65;;;1.50;;
30723;SDS011;17473;52.286;20.930;2023-08-31T06:18:37;1.95;;;1.60;;
30723;SDS011;17473;52.286;20.930;2023-08-31T06:21:04;2.63;;;1.65;;
30723;SDS011;17473;52.286;20.930;2023-08-31T06:23:31;5.15;;;1.80;;
30723;SDS011;17473;52.286;20.930;2023-08-31T06:25:59;3.03;;;1.98;;
30723;SDS011;17473;52.286;20.930;2023-08-31T06:28:26;4.75;;;1.90;;
30723;SDS011;17473;52.286;20.930;2023-08-31T06:30:53;10.98;;;2.38;;
30723;SDS011;17473;52.286;20.930;2023-08-31T06:33:20;2.72;;;1.63;;
30723;SDS011;17473;52.286;20.930;2023-08-31T06:35:48;3.15;;;1.52;;
30723;SDS011;17473;52.286;20.930;2023-08-31T06:38:18;4.72;;;1.42;;
30723;SDS011;17473;52.286;20.930;2023-08-31T06:40:46;1.73;;;1.40;;
30723;SDS011;17473;52.286;20.930;2023-08-31T06:43:13;6.55;;;1.92;;
30723;SDS011;17473;52.286;20.930;2023-08-31T06:45:41;4.05;;;1.80;;
30723;SDS011;17473;52.286;20.930;2023-08-31T06:48:08;1.33;;;1.13;;
30723;SDS011;17473;52.286;20.930;2023-08-31T06:50:36;1.58;;;1.10;;
30723;SDS011;17473;52.286;20.930;2023-08-31T06:53:03;1.85;;;1.30;;
30723;SDS011;17473;52.286;20.930;2023-08-31T06:55:31;1.23;;;1.05;;
30723;SDS011;17473;52.286;20.930;2023-08-31T06:57:58;1.65;;;1.00;;
30723;SDS011;17473;52.286;20.930;2023-08-31T07:00:28;1.42;;;1.15;;
30723;SDS011;17473;52.286;20.930;2023-08-31T07:02:55;2.88;;;1.38;;
30723;SDS011;17473;52.286;20.930;2023-08-31T07:05:24;3.40;;;1.13;;
30723;SDS011;17473;52.286;20.930;2023-08-31T07:07:53;7.07;;;1.30;;
30723;SDS011;17473;52.286;20.930;2023-08-31T07:10:23;3.75;;;1.55;;
30723;SDS011;17473;52.286;20.930;2023-08-31T07:12:51;2.97;;;1.50;;
30723;SDS011;17473;52.286;20.930;2023-08-31T07:15:18;1.27;;;1.13;;
30723;SDS011;17473;52.286;20.930;2023-08-31T07:17:45;1.30;;;0.82;;
30723;SDS011;17473;52.286;20.930;2023-08-31T07:20:12;2.50;;;1.20;;
30723;SDS011;17473;52.286;20.930;2023-08-31T07:22:39;8.70;;;1.55;;
30723;SDS011;17473;52.286;20.930;2023-08-31T07:25:07;5.10;;;1.67;;
30723;SDS011;17473;52.286;20.930;2023-08-31T07:27:34;2.28;;;1.10;;
30723;SDS011;17473;52.286;20.930;2023-08-31T07:30:02;2.88;;;1.52;;
30723;SDS011;17473;52.286;20.930;2023-08-31T07:32:30;3.30;;;1.23;;
30723;SDS011;17473;52.286;20.930;2023-08-31T07:34:58;3.38;;;1.40;;
30723;SDS011;17473;52.286;20.930;2023-08-31T07:37:25;5.32;;;1.58;;
30723;SDS011;17473;52.286;20.930;2023-08-31T07:39:53;6.70;;;1.55;;
30723;SDS011;17473;52.286;20.930;2023-08-31T07:42:20;7.40;;;1.50;;
30723;SDS011;17473;52.286;20.930;2023-08-31T07:44:47;3.50;;;1.58;;
30723;SDS011;17473;52.286;20.930;2023-08-31T07:47:14;2.90;;;1.20;;
30723;SDS011;17473;52.286;20.930;2023-08-31T07:49:41;2.58;;;1.20;;
30723;SDS011;17473;52.286;20.930;2023-08-31T07:52:08;4.22;;;1.48;;
30723;SDS011;17473;52.286;20.930;2023-08-31T07:54:36;1.55;;;1.23;;
30723;SDS011;17473;52.286;20.930;2023-08-31T07:57:03;3.03;;;1.17;;
30723;SDS011;17473;52.286;20.930;2023-08-31T07:59:30;2.67;;;1.38;;
30723;SDS011;17473;52.286;20.930;2023-08-31T08:01:57;2.55;;;1.45;;
30723;SDS011;17473;52.286;20.930;2023-08-31T08:04:24;2.42;;;1.40;;
30723;SDS011;17473;52.286;20.930;2023-08-31T08:06:53;4.68;;;1.25;;
30723;SDS011;17473;52.286;20.930;2023-08-31T08:09:20;3.75;;;1.30;;
30723;SDS011;17473;52.286;20.930;2023-08-31T08:11:47;2.33;;;1.05;;
30723;SDS011;17473;52.286;20.930;2023-08-31T08:14:14;1.10;;;1.00;;
30723;SDS011;17473;52.286;20.930;2023-08-31T08:16:42;1.33;;;1.02;;
30723;SDS011;17473;52.286;20.930;2023-08-31T08:19:09;3.38;;;1.30;;
30723;SDS011;17473;52.286;20.930;2023-08-31T08:21:36;3.03;;;1.17;;
30723;SDS011;17473;52.286;20.930;2023-08-31T08:24:03;1.10;;;1.00;;
30723;SDS011;17473;52.286;20.930;2023-08-31T08:26:31;3.75;;;1.08;;
30723;SDS011;17473;52.286;20.930;2023-08-31T08:28:58;1.33;;;0.90;;
30723;SDS011;17473;52.286;20.930;2023-08-31T08:31:25;2.28;;;1.10;;
30723;SDS011;17473;52.286;20.930;2023-08-31T08:33:52;3.65;;;1.13;;
30723;SDS011;17473;52.286;20.930;2023-08-31T08:36:19;1.33;;;0.90;;
30723;SDS011;17473;52.286;20.930;2023-08-31T08:38:46;2.08;;;0.93;;
30723;SDS011;17473;52.286;20.930;2023-08-31T08:41:14;7.10;;;1.10;;
30723;SDS011;17473;52.286;20.930;2023-08-31T08:43:45;1.83;;;1.25;;
30723;SDS011;17473;52.286;20.930;2023-08-31T08:46:14;2.67;;;1.13;;
30723;SDS011;17473;52.286;20.930;2023-08-31T08:48:42;3.15;;;0.93;;
30723;SDS011;17473;52.286;20.930;2023-08-31T08:51:10;1.13;;;0.88;;
30723;SDS011;17473;52.286;20.930;2023-08-31T08:53:40;1.85;;;0.90;;
30723;SDS011;17473;52.286;20.930;2023-08-31T08:56:10;2.08;;;1.23;;
30723;SDS011;17473;52.286;20.930;2023-08-31T08:58:37;3.75;;;1.27;;
30723;SDS011;17473;52.286;20.930;2023-08-31T09:01:04;4.18;;;1.25;;
30723;SDS011;17473;52.286;20.930;2023-08-31T09:03:34;3.35;;;1.17;;
30723;SDS011;17473;52.286;20.930;2023-08-31T09:06:01;4.30;;;1.25;;
30723;SDS011;17473;52.286;20.930;2023-08-31T09:08:30;4.57;;;1.08;;
30723;SDS011;17473;52.286;20.930;2023-08-31T09:10:58;1.88;;;1.45;;
30723;SDS011;17473;52.286;20.930;2023-08-31T09:13:26;1.52;;;1.08;;
30723;SDS011;17473;52.286;20.930;2023-08-31T09:15:58;1.88;;;1.25;;
30723;SDS011;17473;52.286;20.930;2023-08-31T09:18:30;2.45;;;1.33;;
30723;SDS011;17473;52.286;20.930;2023-08-31T09:20:59;3.28;;;1.23;;
30723;SDS011;17473;52.286;20.930;2023-08-31T09:23:27;1.77;;;1.63;;
30723;SDS011;17473;52.286;20.930;2023-08-31T09:25:55;2.92;;;1.80;;
30723;SDS011;17473;52.286;20.930;2023-08-31T09:28:27;2.50;;;1.40;;
30723;SDS011;17473;52.286;20.930;2023-08-31T09:31:05;4.22;;;1.70;;
30723;SDS011;17473;52.286;20.930;2023-08-31T09:33:35;5.13;;;1.50;;
30723;SDS011;17473;52.286;20.930;2023-08-31T09:36:05;2.92;;;1.80;;
30723;SDS011;17473;52.286;20.930;2023-08-31T09:38:41;2.10;;;1.45;;
30723;SDS011;17473;52.286;20.930;2023-08-31T09:41:10;2.10;;;1.73;;
30723;SDS011;17473;52.286;20.930;2023-08-31T09:43:37;3.25;;;1.70;;
30723;SDS011;17473;52.286;20.930;2023-08-31T09:46:05;4.53;;;1.77;;
30723;SDS011;17473;52.286;20.930;2023-08-31T09:48:33;2.20;;;1.70;;
30723;SDS011;17473;52.286;20.930;2023-08-31T09:51:04;4.18;;;1.73;;
30723;SDS011;17473;52.286;20.930;2023-08-31T09:53:36;1.70;;;1.30;;
30723;SDS011;17473;52.286;20.930;2023-08-31T09:56:05;4.75;;;1.55;;
30723;SDS011;17473;52.286;20.930;2023-08-31T09:58:33;3.08;;;1.80;;
30723;SDS011;17473;52.286;20.930;2023-08-31T10:01:00;2.35;;;1.10;;
30723;SDS011;17473;52.286;20.930;2023-08-31T10:03:44;3.46;;;1.58;;
30723;SDS011;17473;52.286;20.930;2023-08-31T10:06:12;2.88;;;1.70;;
30723;SDS011;17473;52.286;20.930;2023-08-31T10:08:40;1.55;;;1.25;;
30723;SDS011;17473;52.286;20.930;2023-08-31T10:11:09;4.00;;;1.60;;
30723;SDS011;17473;52.286;20.930;2023-08-31T10:13:40;4.25;;;1.40;;
30723;SDS011;17473;52.286;20.930;2023-08-31T10:16:09;2.08;;;1.52;;
30723;SDS011;17473;52.286;20.930;2023-08-31T10:18:37;4.47;;;1.38;;
30723;SDS011;17473;52.286;20.930;2023-08-31T10:21:05;3.72;;;1.63;;
30723;SDS011;17473;52.286;20.930;2023-08-31T10:23:33;2.25;;;1.63;;
30723;SDS011;17473;52.286;20.930;2023-08-31T10:26:04;2.53;;;1.30;;
30723;SDS011;17473;52.286;20.930;2023-08-31T10:28:38;7.72;;;1.67;;
30723;SDS011;17473;52.286;20.930;2023-08-31T10:31:17;14.07;;;1.98;;
30723;SDS011;17473;52.286;20.930;2023-08-31T10:33:58;3.13;;;1.50;;
30723;SDS011;17473;52.286;20.930;2023-08-31T10:39:16;2.75;;;1.63;;
30723;SDS011;17473;52.286;20.930;2023-08-31T10:41:54;6.25;;;2.08;;
30723;SDS011;17473;52.286;20.930;2023-08-31T10:44:24;2.72;;;1.50;;
30723;SDS011;17473;52.286;20.930;2023-08-31T10:46:53;2.50;;;1.40;;
30723;SDS011;17473;52.286;20.930;2023-08-31T10:49:21;2.47;;;2.08;;
30723;SDS011;17473;52.286;20.930;2023-08-31T10:51:52;3.15;;;1.73;;
30723;SDS011;17473;52.286;20.930;2023-08-31T10:54:25;5.82;;;2.15;;
30723;SDS011;17473;52.286;20.930;2023-08-31T10:57:04;6.05;;;2.05;;
30723;SDS011;17473;52.286;20.930;2023-08-31T11:07:44;4.57;;;1.60;;
30723;SDS011;17473;52.286;20.930;2023-08-31T11:10:15;3.05;;;2.25;;
30723;SDS011;17473;52.286;20.930;2023-08-31T11:12:48;2.83;;;2.30;;
30723;SDS011;17473;52.286;20.930;2023-08-31T11:15:20;5.50;;;2.03;;
30723;SDS011;17473;52.286;20.930;2023-08-31T11:17:53;8.52;;;1.70;;
30723;SDS011;17473;52.286;20.930;2023-08-31T11:20:23;3.17;;;2.05;;
30723;SDS011;17473;52.286;20.930;2023-08-31T11:22:59;3.42;;;1.95;;
30723;SDS011;17473;52.286;20.930;2023-08-31T11:25:27;2.17;;;1.98;;
30723;SDS011;17473;52.286;20.930;2023-08-31T11:27:58;2.35;;;2.15;;
30723;SDS011;17473;52.286;20.930;2023-08-31T11:30:28;5.90;;;2.00;;
30723;SDS011;17473;52.286;20.930;2023-08-31T11:33:03;5.22;;;2.00;;
30723;SDS011;17473;52.286;20.930;2023-08-31T11:35:33;5.72;;;2.22;;
30723;SDS011;17473;52.286;20.930;2023-08-31T11:38:03;2.53;;;2.03;;
30723;SDS011;17473;52.286;20.930;2023-08-31T11:40:31;4.10;;;1.70;;
30723;SDS011;17473;52.286;20.930;2023-08-31T11:42:58;4.63;;;1.85;;
30723;SDS011;17473;52.286;20.930;2023-08-31T11:45:30;6.43;;;2.30;;
30723;SDS011;17473;52.286;20.930;2023-08-31T11:47:58;3.63;;;2.05;;
30723;SDS011;17473;52.286;20.930;2023-08-31T11:50:26;3.53;;;2.10;;
30723;SDS011;17473;52.286;20.930;2023-08-31T11:52:54;4.03;;;2.22;;
30723;SDS011;17473;52.286;20.930;2023-08-31T11:55:22;3.47;;;2.28;;
30723;SDS011;17473;52.286;20.930;2023-08-31T11:57:50;3.85;;;2.15;;
30723;SDS011;17473;52.286;20.930;2023-08-31T12:00:21;1.98;;;1.77;;
30723;SDS011;17473;52.286;20.930;2023-08-31T12:03:02;1.95;;;1.85;;
30723;SDS011;17473;52.286;20.930;2023-08-31T12:05:44;5.65;;;1.95;;
30723;SDS011;17473;52.286;20.930;2023-08-31T12:08:13;2.60;;;1.90;;
30723;SDS011;17473;52.286;20.930;2023-08-31T12:10:42;4.18;;;2.35;;
30723;SDS011;17473;52.286;20.930;2023-08-31T12:13:09;5.78;;;2.80;;
30723;SDS011;17473;52.286;20.930;2023-08-31T12:15:39;2.17;;;1.90;;
30723;SDS011;17473;52.286;20.930;2023-08-31T12:18:10;3.03;;;2.42;;
30723;SDS011;17473;52.286;20.930;2023-08-31T12:20:42;2.92;;;2.25;;
30723;SDS011;17473;52.286;20.930;2023-08-31T12:23:14;4.53;;;2.28;;
30723;SDS011;17473;52.286;20.930;2023-08-31T12:25:45;3.35;;;2.15;;
30723;SDS011;17473;52.286;20.930;2023-08-31T12:28:14;4.18;;;2.65;;
30723;SDS011;17473;52.286;20.930;2023-08-31T12:30:42;3.28;;;2.20;;
30723;SDS011;17473;52.286;20.930;2023-08-31T12:33:20;8.48;;;2.00;;
30723;SDS011;17473;52.286;20.930;2023-08-31T12:35:48;2.85;;;2.03;;
30723;SDS011;17473;52.286;20.930;2023-08-31T12:38:15;3.67;;;2.10;;
30723;SDS011;17473;52.286;20.930;2023-08-31T12:40:42;3.67;;;2.22;;
30723;SDS011;17473;52.286;20.930;2023-08-31T12:43:10;3.05;;;2.20;;
30723;SDS011;17473;52.286;20.930;2023-08-31T12:45:37;4.45;;;1.98;;
30723;SDS011;17473;52.286;20.930;2023-08-31T12:48:05;2.20;;;2.00;;
30723;SDS011;17473;52.286;20.930;2023-08-31T12:50:32;6.32;;;2.50;;
30723;SDS011;17473;52.286;20.930;2023-08-31T12:52:59;7.15;;;2.15;;
30723;SDS011;17473;52.286;20.930;2023-08-31T12:55:26;5.60;;;2.53;;
30723;SDS011;17473;52.286;20.930;2023-08-31T12:57:53;5.55;;;2.50;;
30723;SDS011;17473;52.286;20.930;2023-08-31T13:00:20;3.97;;;2.25;;
30723;SDS011;17473;52.286;20.930;2023-08-31T13:02:48;3.67;;;2.45;;
30723;SDS011;17473;52.286;20.930;2023-08-31T13:05:17;3.50;;;2.15;;
30723;SDS011;17473;52.286;20.930;2023-08-31T13:07:46;3.97;;;2.30;;
30723;SDS011;17473;52.286;20.930;2023-08-31T13:10:13;2.92;;;2.20;;
30723;SDS011;17473;52.286;20.930;2023-08-31T13:12:40;6.45;;;2.53;;
30723;SDS011;17473;52.286;20.930;2023-08-31T13:15:07;3.15;;;2.40;;
30723;SDS011;17473;52.286;20.930;2023-08-31T13:17:35;6.63;;;2.88;;
30723;SDS011;17473;52.286;20.930;2023-08-31T13:20:03;4.80;;;2.60;;
30723;SDS011;17473;52.286;20.930;2023-08-31T13:22:31;3.28;;;2.30;;
30723;SDS011;17473;52.286;20.930;2023-08-31T13:24:58;5.75;;;2.28;;
30723;SDS011;17473;52.286;20.930;2023-08-31T13:27:25;5.30;;;2.53;;
30723;SDS011;17473;52.286;20.930;2023-08-31T13:29:52;3.72;;;2.72;;
30723;SDS011;17473;52.286;20.930;2023-08-31T13:32:20;8.10;;;2.15;;
30723;SDS011;17473;52.286;20.930;2023-08-31T13:34:47;5.60;;;2.30;;
30723;SDS011;17473;52.286;20.930;2023-08-31T13:37:14;5.35;;;2.30;;
30723;SDS011;17473;52.286;20.930;2023-08-31T13:39:41;3.85;;;2.20;;
30723;SDS011;17473;52.286;20.930;2023-08-31T13:42:09;3.03;;;2.03;;
30723;SDS011;17473;52.286;20.930;2023-08-31T13:44:36;2.20;;;1.90;;
30723;SDS011;17473;52.286;20.930;2023-08-31T13:47:03;5.20;;;2.10;;
30723;SDS011;17473;52.286;20.930;2023-08-31T13:49:32;3.50;;;2.20;;
30723;SDS011;17473;52.286;20.930;2023-08-31T13:51:59;2.65;;;2.45;;
30723;SDS011;17473;52.286;20.930;2023-08-31T13:54:27;3.67;;;2.50;;
30723;SDS011;17473;52.286;20.930;2023-08-31T13:56:54;8.00;;;2.08;;
30723;SDS011;17473;52.286;20.930;2023-08-31T13:59:21;8.52;;;2.55;;
30723;SDS011;17473;52.286;20.930;2023-08-31T14:01:48;9.30;;;2.83;;
30723;SDS011;17473;52.286;20.930;2023-08-31T14:04:16;5.80;;;2.33;;
30723;SDS011;17473;52.286;20.930;2023-08-31T14:06:43;6.47;;;2.55;;
30723;SDS011;17473;52.286;20.930;2023-08-31T14:09:10;3.28;;;2.20;;
30723;SDS011;17473;52.286;20.930;2023-08-31T14:11:37;3.15;;;2.25;;
30723;SDS011;17473;52.286;20.930;2023-08-31T14:14:06;4.70;;;2.63;;
30723;SDS011;17473;52.286;20.930;2023-08-31T14:16:37;3.47;;;2.10;;
30723;SDS011;17473;52.286;20.930;2023-08-31T14:19:05;3.92;;;2.38;;
30723;SDS011;17473;52.286;20.930;2023-08-31T14:21:32;3.47;;;2.78;;
30723;SDS011;17473;52.286;20.930;2023-08-31T14:23:59;7.25;;;2.70;;
30723;SDS011;17473;52.286;20.930;2023-08-31T14:26:27;3.78;;;2.83;;
30723;SDS011;17473;52.286;20.930;2023-08-31T14:28:54;6.35;;;2.88;;
30723;SDS011;17473;52.286;20.930;2023-08-31T14:31:21;4.65;;;3.05;;
30723;SDS011;17473;52.286;20.930;2023-08-31T14:33:49;11.13;;;3.15;;
30723;SDS011;17473;52.286;20.930;2023-08-31T14:36:18;6.82;;;3.05;;
30723;SDS011;17473;52.286;20.930;2023-08-31T14:38:45;4.25;;;2.97;;
30723;SDS011;17473;52.286;20.930;2023-08-31T14:41:12;4.53;;;2.80;;
30723;SDS011;17473;52.286;20.930;2023-08-31T14:43:40;7.13;;;3.15;;
30723;SDS011;17473;52.286;20.930;2023-08-31T14:46:07;4.65;;;2.78;;
30723;SDS011;17473;52.286;20.930;2023-08-31T14:48:35;5.82;;;3.10;;
30723;SDS011;17473;52.286;20.930;2023-08-31T14:51:03;12.73;;;4.50;;
30723;SDS011;17473;52.286;20.930;2023-08-31T14:53:30;4.93;;;3.55;;
30723;SDS011;17473;52.286;20.930;2023-08-31T14:55:57;6.93;;;3.70;;
30723;SDS011;17473;52.286;20.930;2023-08-31T14:58:24;4.03;;;3.63;;
30723;SDS011;17473;52.286;20.930;2023-08-31T15:00:55;7.25;;;3.50;;
30723;SDS011;17473;52.286;20.930;2023-08-31T15:03:23;5.07;;;3.67;;
30723;SDS011;17473;52.286;20.930;2023-08-31T15:05:50;6.20;;;4.65;;